Webcam

2021/06/22 06:20 EBBR 220620Z 04008KT 9999 -RA FEW013 12/10 Q1015 TEMPO 4500 RA BKN014

Webcam

--- Refresh now ---